Time;durP1;ratioP1;P1;durP2;ratioP2;P2;SDS_P1;SDS_P2;PMS_P1;PMS_P2;Temp;Humidity;BMP_temperature;BMP_pressure;BME280_temperature;BME280_humidity;BME280_pressure;Samples;Min_cycle;Max_cycle;Signal;HPM_P1;HPM_P2
2024/03/01 00:00:03;;;;;;;9.95;8.70;;;;;;;;;;1264842;23;20045;-74
2024/03/01 00:00:33;;;;;;;24.17;6.53;;;;;;;;;;1264272;23;20005;-74
2024/03/01 00:01:04;;;;;;;9.25;8.27;;;;;;;;;;1264561;23;20104;-74
2024/03/01 00:01:34;;;;;;;13.93;8.70;;;;;;;;;;1264805;23;20028;-74
2024/03/01 00:02:05;;;;;;;6.82;6.07;;;;;;;;;;1265239;23;20093;-74
2024/03/01 00:02:35;;;;;;;8.77;5.18;;;;;;;;;;1265162;23;20438;-74
2024/03/01 00:03:06;;;;;;;10.23;5.20;;;;;;;;;;1265047;23;20009;-74
2024/03/01 00:03:36;;;;;;;16.60;12.65;;;;;;;;;;1264802;23;20009;-74
2024/03/01 00:04:07;;;;;;;12.80;9.57;;;;;;;;;;1264970;23;20006;-74
2024/03/01 00:04:37;;;;;;;10.15;5.43;;;;;;;;;;1264662;23;20008;-74
2024/03/01 00:05:08;;;;;;;11.57;7.90;;;;;;;;;;1289111;23;20424;-74
2024/03/01 00:05:38;;;;;;;18.00;7.95;;;;;;;;;;1264592;23;20013;-74
2024/03/01 00:06:09;;;;;;;10.68;9.00;;;;;;;;;;1264671;23;20006;-74
2024/03/01 00:06:39;;;;;;;12.68;7.38;;;;;;;;;;1264350;23;20002;-74
2024/03/01 00:07:10;;;;;;;12.05;9.68;;;;;;;;;;1264819;23;20032;-74
2024/03/01 00:07:40;;;;;;;6.93;6.50;;;;;;;;;;1264554;23;20084;-74
2024/03/01 00:08:11;;;;;;;10.25;9.35;;;;;;;;;;1264985;23;19990;-74
2024/03/01 00:08:41;;;;;;;5.03;4.47;;;;;;;;;;1264531;23;20002;-74
2024/03/01 00:09:12;;;;;;;13.48;7.00;;;;;;;;;;1264930;23;20423;-74
2024/03/01 00:09:43;;;;;;;28.88;8.90;;;;;;;;;;1258782;23;20006;-74
2024/03/01 00:10:13;;;;;;;9.07;8.23;;;;;;;;;;1258767;23;20454;-74
2024/03/01 00:10:44;;;;;;;7.72;5.78;;;;;;;;;;1258449;23;19995;-74
2024/03/01 00:11:14;;;;;;;21.23;7.30;;;;;;;;;;1252884;23;20474;-74
2024/03/01 00:11:45;;;;;;;4.13;3.80;;;;;;;;;;1258975;23;20055;-74
2024/03/01 00:12:15;;;;;;;10.68;9.13;;;;;;;;;;1264919;23;20029;-74
2024/03/01 00:12:46;;;;;;;7.82;5.47;;;;;;;;;;1264633;23;20421;-74
2024/03/01 00:13:16;;;;;;;7.82;6.13;;;;;;;;;;1270978;23;20449;-74
2024/03/01 00:13:47;;;;;;;17.63;11.77;;;;;;;;;;1264685;23;20013;-74
2024/03/01 00:14:17;;;;;;;17.08;6.63;;;;;;;;;;1258742;23;20101;-74
2024/03/01 00:14:48;;;;;;;8.05;7.00;;;;;;;;;;1258606;23;20003;-74
2024/03/01 00:15:19;;;;;;;4.85;4.50;;;;;;;;;;1258985;23;20081;-74
2024/03/01 00:15:49;;;;;;;13.38;7.07;;;;;;;;;;1264738;23;20013;-74
2024/03/01 00:16:20;;;;;;;17.02;5.03;;;;;;;;;;1265059;23;19998;-74
2024/03/01 00:16:50;;;;;;;9.65;8.75;;;;;;;;;;1264486;23;20051;-74
2024/03/01 00:17:21;;;;;;;11.00;8.10;;;;;;;;;;1264614;23;20006;-74
2024/03/01 00:17:51;;;;;;;8.00;7.25;;;;;;;;;;1258912;23;20373;-74
2024/03/01 00:18:22;;;;;;;10.52;9.70;;;;;;;;;;1258950;23;20492;-74
2024/03/01 00:18:52;;;;;;;8.30;7.47;;;;;;;;;;1264635;23;20010;-74
2024/03/01 00:19:23;;;;;;;9.48;6.28;;;;;;;;;;1264759;23;20404;-74
2024/03/01 00:19:53;;;;;;;7.05;4.20;;;;;;;;;;1264806;23;20006;-74
2024/03/01 00:20:24;;;;;;;7.10;6.22;;;;;;;;;;1265172;23;20005;-74
2024/03/01 00:20:54;;;;;;;19.38;4.82;;;;;;;;;;1264800;23;20081;-74
2024/03/01 00:21:25;;;;;;;7.05;6.40;;;;;;;;;;1264811;23;20049;-74
2024/03/01 00:21:55;;;;;;;27.05;7.53;;;;;;;;;;1289848;23;20087;-74
2024/03/01 00:22:26;;;;;;;1.73;1.48;;;;;;;;;;1289893;23;20004;-74
2024/03/01 00:22:56;;;;;;;13.98;7.78;;;;;;;;;;1264684;23;20005;-74
2024/03/01 00:23:27;;;;;;;12.07;11.00;;;;;;;;;;1259092;23;20446;-74
2024/03/01 00:23:57;;;;;;;4.07;3.88;;;;;;;;;;1258644;23;20041;-74
2024/03/01 00:24:28;;;;;;;4.50;3.88;;;;;;;;;;1258767;23;20088;-74
2024/03/01 00:24:58;;;;;;;7.22;5.78;;;;;;;;;;1258594;23;20612;-74
2024/03/01 00:25:29;;;;;;;20.98;10.82;;;;;;;;;;1264840;23;20013;-74
2024/03/01 00:25:59;;;;;;;9.68;7.72;;;;;;;;;;1264743;23;20433;-74
2024/03/01 00:26:30;;;;;;;34.70;8.07;;;;;;;;;;1258683;23;20065;-74
2024/03/01 00:27:00;;;;;;;18.92;6.18;;;;;;;;;;1264522;23;20072;-74
2024/03/01 00:27:31;;;;;;;9.15;8.18;;;;;;;;;;1264849;23;20010;-74
2024/03/01 00:28:01;;;;;;;6.97;6.38;;;;;;;;;;1264918;23;20009;-74
2024/03/01 00:28:32;;;;;;;12.18;7.82;;;;;;;;;;1264673;23;20435;-74
2024/03/01 00:29:03;;;;;;;10.68;5.60;;;;;;;;;;1264538;23;20006;-74
2024/03/01 00:29:33;;;;;;;18.80;10.75;;;;;;;;;;1264725;23;20081;-74
2024/03/01 00:30:04;;;;;;;6.15;5.70;;;;;;;;;;1264847;23;20014;-74
2024/03/01 00:30:34;;;;;;;7.25;6.10;;;;;;;;;;1265103;23;20002;-74
2024/03/01 00:31:05;;;;;;;9.50;5.32;;;;;;;;;;1264618;23;20012;-74
2024/03/01 00:31:35;;;;;;;23.90;12.20;;;;;;;;;;1264722;23;20009;-74
2024/03/01 00:32:06;;;;;;;9.65;7.00;;;;;;;;;;1258830;23;20044;-74
2024/03/01 00:32:36;;;;;;;5.60;5.07;;;;;;;;;;1264643;23;20005;-74
2024/03/01 00:33:07;;;;;;;15.10;6.82;;;;;;;;;;1270855;23;20005;-74
2024/03/01 00:33:37;;;;;;;9.73;8.65;;;;;;;;;;1270811;23;20434;-74
2024/03/01 00:34:08;;;;;;;7.13;3.78;;;;;;;;;;1270921;23;20032;-75
2024/03/01 00:34:38;;;;;;;40.88;12.63;;;;;;;;;;1264783;23;20010;-74
2024/03/01 00:35:09;;;;;;;16.13;8.27;;;;;;;;;;1265293;23;20006;-74
2024/03/01 00:35:39;;;;;;;9.20;6.28;;;;;;;;;;1265060;23;20029;-74
2024/03/01 00:36:10;;;;;;;13.73;8.55;;;;;;;;;;1264933;23;20092;-74
2024/03/01 00:36:40;;;;;;;10.32;6.45;;;;;;;;;;1258200;23;20394;-74
2024/03/01 00:37:10;;;;;;;11.00;6.50;;;;;;;;;;1252826;23;20011;-74
2024/03/01 00:37:41;;;;;;;24.48;5.82;;;;;;;;;;1252617;23;20089;-74
2024/03/01 00:38:11;;;;;;;18.20;7.13;;;;;;;;;;1283990;23;20084;-74
2024/03/01 00:38:42;;;;;;;9.77;4.45;;;;;;;;;;1290157;22;20008;-74
2024/03/01 00:39:12;;;;;;;5.78;3.83;;;;;;;;;;1296647;22;20008;-74
2024/03/01 00:39:43;;;;;;;7.05;6.45;;;;;;;;;;1296235;22;20007;-74
2024/03/01 00:40:13;;;;;;;7.38;6.70;;;;;;;;;;1264580;23;20002;-74
2024/03/01 00:40:44;;;;;;;9.43;5.75;;;;;;;;;;1264556;23;20002;-74
2024/03/01 00:41:15;;;;;;;21.08;6.03;;;;;;;;;;1264870;23;20047;-74
2024/03/01 00:41:45;;;;;;;5.13;4.65;;;;;;;;;;1264738;23;20002;-74
2024/03/01 00:42:15;;;;;;;5.57;4.28;;;;;;;;;;1264776;23;20385;-74
2024/03/01 00:42:46;;;;;;;5.88;5.35;;;;;;;;;;1256972;23;20002;-74
2024/03/01 00:43:16;;;;;;;19.10;8.00;;;;;;;;;;1252456;23;20094;-74
2024/03/01 00:43:48;;;;;;;9.00;7.93;;;;;;;;;;1258727;23;20128;-74
2024/03/01 00:44:19;;;;;;;11.30;4.88;;;;;;;;;;1259328;23;20010;-74
2024/03/01 00:44:49;;;;;;;18.25;6.50;;;;;;;;;;1264571;23;20430;-74
2024/03/01 00:45:20;;;;;;;14.60;8.32;;;;;;;;;;1264444;23;20088;-74
2024/03/01 00:45:51;;;;;;;23.65;7.63;;;;;;;;;;1264750;23;20093;-74
2024/03/01 00:46:21;;;;;;;19.45;13.57;;;;;;;;;;1264746;23;20449;-74
2024/03/01 00:46:52;;;;;;;5.38;5.00;;;;;;;;;;1258690;23;20041;-74
2024/03/01 00:47:22;;;;;;;6.45;5.85;;;;;;;;;;1264654;23;20012;-74
2024/03/01 00:47:53;;;;;;;6.50;5.63;;;;;;;;;;1264220;23;20002;-74
2024/03/01 00:48:24;;;;;;;16.10;7.25;;;;;;;;;;1264693;23;20493;-74
2024/03/01 00:48:55;;;;;;;13.85;5.90;;;;;;;;;;1270642;23;19994;-74
2024/03/01 00:49:26;;;;;;;7.93;7.38;;;;;;;;;;1270275;23;20088;-74
2024/03/01 00:49:56;;;;;;;4.60;4.18;;;;;;;;;;1265087;23;20369;-74
2024/03/01 00:50:27;;;;;;;8.70;7.72;;;;;;;;;;1264802;23;20315;-74
2024/03/01 00:50:57;;;;;;;13.38;8.93;;;;;;;;;;1258520;23;20006;-74
2024/03/01 00:51:28;;;;;;;16.95;9.63;;;;;;;;;;1258481;23;20350;-75
2024/03/01 00:51:59;;;;;;;8.18;6.50;;;;;;;;;;1252571;23;20034;-75
2024/03/01 00:52:30;;;;;;;10.40;7.38;;;;;;;;;;1252954;23;20076;-75
2024/03/01 00:53:00;;;;;;;16.17;6.35;;;;;;;;;;1258302;23;20092;-75
2024/03/01 00:53:31;;;;;;;10.52;5.70;;;;;;;;;;1252694;23;20038;-75
2024/03/01 00:54:02;;;;;;;5.43;5.03;;;;;;;;;;1252831;23;20089;-75
2024/03/01 00:54:32;;;;;;;16.83;11.80;;;;;;;;;;1258361;23;20476;-74
2024/03/01 00:55:04;;;;;;;17.80;7.72;;;;;;;;;;1252886;23;20010;-75
2024/03/01 00:55:36;;;;;;;5.63;5.13;;;;;;;;;;1259187;23;20430;-74
2024/03/01 00:56:06;;;;;;;22.80;4.90;;;;;;;;;;1264789;23;20092;-74
2024/03/01 00:56:37;;;;;;;8.80;7.07;;;;;;;;;;1258998;23;20010;-74
2024/03/01 00:57:08;;;;;;;10.85;6.63;;;;;;;;;;1258689;23;20006;-74
2024/03/01 00:57:38;;;;;;;15.75;6.68;;;;;;;;;;1252428;23;20474;-75
2024/03/01 00:58:09;;;;;;;20.58;11.80;;;;;;;;;;1247027;23;20026;-74
2024/03/01 00:58:40;;;;;;;16.73;10.15;;;;;;;;;;1246726;23;20003;-74
2024/03/01 00:59:11;;;;;;;6.63;5.85;;;;;;;;;;1253222;23;20455;-74
2024/03/01 00:59:42;;;;;;;15.10;9.65;;;;;;;;;;1258750;23;20067;-74
2024/03/01 01:00:12;;;;;;;8.15;7.43;;;;;;;;;;1264833;23;20453;-74
2024/03/01 01:00:43;;;;;;;10.48;9.27;;;;;;;;;;1270552;22;20037;-74
2024/03/01 01:01:13;;;;;;;5.18;4.45;;;;;;;;;;1264690;22;20394;-74
2024/03/01 01:01:44;;;;;;;10.32;7.65;;;;;;;;;;1258404;23;20081;-74
2024/03/01 01:02:14;;;;;;;10.98;7.88;;;;;;;;;;1252763;23;20034;-74
2024/03/01 01:02:45;;;;;;;10.27;9.27;;;;;;;;;;1252376;23;19995;-74
2024/03/01 01:03:15;;;;;;;12.80;9.93;;;;;;;;;;1258941;23;20012;-74
2024/03/01 01:03:45;;;;;;;22.08;5.55;;;;;;;;;;1264627;23;20108;-74
2024/03/01 01:04:16;;;;;;;15.52;5.35;;;;;;;;;;1264505;23;20006;-74
2024/03/01 01:04:46;;;;;;;16.13;7.40;;;;;;;;;;1264649;23;20013;-74
2024/03/01 01:05:20;;;;;;;6.43;5.43;;;;;;;;;;1264757;23;20008;-74
2024/03/01 01:05:50;;;;;;;8.63;6.63;;;;;;;;;;1265286;23;20006;-74
2024/03/01 01:06:22;;;;;;;12.27;6.22;;;;;;;;;;1270520;23;20001;-74
2024/03/01 01:06:52;;;;;;;39.55;6.53;;;;;;;;;;1264367;23;20051;-74
2024/03/01 01:07:24;;;;;;;4.70;4.20;;;;;;;;;;1258540;23;20002;-74
2024/03/01 01:07:54;;;;;;;11.80;5.90;;;;;;;;;;1258543;23;20044;-74
2024/03/01 01:08:25;;;;;;;8.82;8.02;;;;;;;;;;1259050;23;20401;-74
2024/03/01 01:08:55;;;;;;;7.40;6.68;;;;;;;;;;1258844;23;20101;-74
2024/03/01 01:09:25;;;;;;;16.98;7.13;;;;;;;;;;1264517;23;20037;-74
2024/03/01 01:09:56;;;;;;;19.85;8.77;;;;;;;;;;1264595;23;20006;-75
2024/03/01 01:10:28;;;;;;;23.85;12.15;;;;;;;;;;1264579;23;20062;-74
2024/03/01 01:10:58;;;;;;;17.25;7.13;;;;;;;;;;1264801;23;20006;-74
2024/03/01 01:11:29;;;;;;;9.20;8.43;;;;;;;;;;1264974;23;20001;-74
2024/03/01 01:11:59;;;;;;;5.35;4.90;;;;;;;;;;1264573;23;20001;-74
2024/03/01 01:12:30;;;;;;;10.75;5.03;;;;;;;;;;1258692;23;20344;-74
2024/03/01 01:13:01;;;;;;;7.53;6.80;;;;;;;;;;1251487;23;20007;-74
2024/03/01 01:13:31;;;;;;;4.57;3.53;;;;;;;;;;1251841;23;20078;-74
2024/03/01 01:14:02;;;;;;;22.05;9.82;;;;;;;;;;1258441;23;20093;-74
2024/03/01 01:14:32;;;;;;;2.67;2.47;;;;;;;;;;1264277;23;20086;-74
2024/03/01 01:15:03;;;;;;;28.05;6.43;;;;;;;;;;1258079;23;20477;-74
2024/03/01 01:15:34;;;;;;;4.88;4.50;;;;;;;;;;1264025;23;20013;-74
2024/03/01 01:16:04;;;;;;;14.60;4.97;;;;;;;;;;1264175;23;20041;-74
2024/03/01 01:16:35;;;;;;;6.65;6.03;;;;;;;;;;1263028;23;20002;-74
2024/03/01 01:17:05;;;;;;;25.88;12.75;;;;;;;;;;1263822;23;20010;-74
2024/03/01 01:17:36;;;;;;;20.60;8.25;;;;;;;;;;1264293;23;20006;-74
2024/03/01 01:18:06;;;;;;;15.85;4.95;;;;;;;;;;1263488;23;20109;-74
2024/03/01 01:18:37;;;;;;;30.17;13.02;;;;;;;;;;1263937;23;20479;-74
2024/03/01 01:19:07;;;;;;;8.90;7.45;;;;;;;;;;1263164;23;20413;-74
2024/03/01 01:19:38;;;;;;;12.55;4.85;;;;;;;;;;1264038;23;20009;-74
2024/03/01 01:20:09;;;;;;;5.40;5.07;;;;;;;;;;1288996;23;20283;-74
2024/03/01 01:20:39;;;;;;;30.90;7.60;;;;;;;;;;1288434;23;20444;-74
2024/03/01 01:21:10;;;;;;;7.47;4.05;;;;;;;;;;1287899;23;20035;-74
2024/03/01 01:21:40;;;;;;;10.68;5.70;;;;;;;;;;1263653;23;20002;-74
2024/03/01 01:22:11;;;;;;;5.82;4.57;;;;;;;;;;1263660;23;20013;-74
2024/03/01 01:22:41;;;;;;;6.45;5.93;;;;;;;;;;1264551;23;20009;-74
2024/03/01 01:23:12;;;;;;;9.93;5.20;;;;;;;;;;1264563;23;20333;-74
2024/03/01 01:23:42;;;;;;;23.73;9.35;;;;;;;;;;1264246;23;20052;-74
2024/03/01 01:24:13;;;;;;;3.70;3.50;;;;;;;;;;1264939;23;20468;-74
2024/03/01 01:24:43;;;;;;;16.58;10.38;;;;;;;;;;1262661;23;20005;-74
2024/03/01 01:25:14;;;;;;;9.93;7.00;;;;;;;;;;1289319;23;20007;-73
2024/03/01 01:25:45;;;;;;;5.82;4.32;;;;;;;;;;1282838;23;20004;-74
2024/03/01 01:26:15;;;;;;;13.90;4.72;;;;;;;;;;1282573;23;20314;-74
2024/03/01 01:26:46;;;;;;;25.60;7.93;;;;;;;;;;1258224;23;20010;-74
2024/03/01 01:27:16;;;;;;;11.02;5.32;;;;;;;;;;1263774;23;20147;-74
2024/03/01 01:27:47;;;;;;;15.48;6.80;;;;;;;;;;1264478;23;20007;-74
2024/03/01 01:28:17;;;;;;;26.45;9.68;;;;;;;;;;1258176;23;20009;-74
2024/03/01 01:28:51;;;;;;;8.10;3.78;;;;;;;;;;1258543;23;20013;-74
2024/03/01 01:29:25;;;;;;;13.80;5.82;;;;;;;;;;1251680;23;20383;-74
2024/03/01 01:29:57;;;;;;;5.80;5.25;;;;;;;;;;1247570;23;20010;-75
2024/03/01 01:30:27;;;;;;;6.13;4.65;;;;;;;;;;1253621;23;20003;-74
2024/03/01 01:30:58;;;;;;;9.73;4.50;;;;;;;;;;1252661;23;20050;-75
2024/03/01 01:31:29;;;;;;;11.05;4.72;;;;;;;;;;1252963;23;20467;-74
2024/03/01 01:32:00;;;;;;;29.52;13.00;;;;;;;;;;1282365;23;20012;-74
2024/03/01 01:32:30;;;;;;;4.90;4.43;;;;;;;;;;1282559;23;20008;-74
2024/03/01 01:33:01;;;;;;;9.00;8.32;;;;;;;;;;1251456;23;20556;-74
2024/03/01 01:33:31;;;;;;;5.50;3.95;;;;;;;;;;1257564;23;20010;-74
2024/03/01 01:34:02;;;;;;;10.32;6.53;;;;;;;;;;1262722;23;20024;-74
2024/03/01 01:34:32;;;;;;;8.40;7.63;;;;;;;;;;1263249;23;20379;-74
2024/03/01 01:35:03;;;;;;;14.77;6.07;;;;;;;;;;1263873;23;20026;-74
2024/03/01 01:35:33;;;;;;;18.63;8.30;;;;;;;;;;1263971;23;20503;-74
2024/03/01 01:36:05;;;;;;;16.05;7.03;;;;;;;;;;1284014;23;20011;-73
2024/03/01 01:36:36;;;;;;;11.27;7.50;;;;;;;;;;1276621;23;19997;-73
2024/03/01 01:37:07;;;;;;;3.42;3.13;;;;;;;;;;1267642;23;20438;-74
2024/03/01 01:37:37;;;;;;;8.57;6.72;;;;;;;;;;1246708;23;20034;-74
2024/03/01 01:38:08;;;;;;;40.65;10.70;;;;;;;;;;1252132;23;20196;-75
2024/03/01 01:38:39;;;;;;;3.40;3.05;;;;;;;;;;1257588;23;20480;-74
2024/03/01 01:39:09;;;;;;;19.27;12.45;;;;;;;;;;1263487;23;20079;-74
2024/03/01 01:39:40;;;;;;;9.95;6.60;;;;;;;;;;1263811;23;20010;-74
2024/03/01 01:40:12;;;;;;;20.25;6.20;;;;;;;;;;1264079;23;20008;-74
2024/03/01 01:40:44;;;;;;;5.15;4.70;;;;;;;;;;1264060;23;20385;-74
2024/03/01 01:41:14;;;;;;;5.20;4.75;;;;;;;;;;1263921;23;20002;-74
2024/03/01 01:41:45;;;;;;;4.90;4.40;;;;;;;;;;1287185;23;20004;-74
2024/03/01 01:42:15;;;;;;;14.30;7.32;;;;;;;;;;1256150;23;20517;-74
2024/03/01 01:42:48;;;;;;;12.48;3.20;;;;;;;;;;1256537;23;20008;-74
2024/03/01 01:43:19;;;;;;;16.55;4.90;;;;;;;;;;1257714;23;20010;-74
2024/03/01 01:43:50;;;;;;;5.38;4.50;;;;;;;;;;1258489;23;20006;-74
2024/03/01 01:44:20;;;;;;;9.40;5.43;;;;;;;;;;1258353;23;20014;-74
2024/03/01 01:44:51;;;;;;;6.85;6.22;;;;;;;;;;1251929;23;20527;-74
2024/03/01 01:45:21;;;;;;;8.73;7.35;;;;;;;;;;1251950;23;20007;-74
2024/03/01 01:45:54;;;;;;;8.00;7.32;;;;;;;;;;1252601;23;20090;-74
2024/03/01 01:46:24;;;;;;;11.63;10.52;;;;;;;;;;1258487;23;20009;-76
2024/03/01 01:46:55;;;;;;;6.65;6.15;;;;;;;;;;1264185;23;20081;-74
2024/03/01 01:47:26;;;;;;;18.38;7.93;;;;;;;;;;1258288;23;20410;-74
2024/03/01 01:47:57;;;;;;;12.43;6.10;;;;;;;;;;1251609;23;20442;-74
2024/03/01 01:48:27;;;;;;;6.55;6.07;;;;;;;;;;1252269;23;20057;-74
2024/03/01 01:48:58;;;;;;;9.05;6.93;;;;;;;;;;1251326;23;20784;-74
2024/03/01 01:49:29;;;;;;;19.20;4.90;;;;;;;;;;1258269;23;20093;-74
2024/03/01 01:50:00;;;;;;;4.47;4.07;;;;;;;;;;1263073;23;20005;-74
2024/03/01 01:50:31;;;;;;;10.77;6.68;;;;;;;;;;1264564;23;20004;-74
2024/03/01 01:51:03;;;;;;;22.80;5.75;;;;;;;;;;1289285;23;20004;-74
2024/03/01 01:51:34;;;;;;;18.27;16.60;;;;;;;;;;1280868;23;20012;-74
2024/03/01 01:52:05;;;;;;;8.88;3.92;;;;;;;;;;1283386;23;20004;-74
2024/03/01 01:52:36;;;;;;;14.93;6.95;;;;;;;;;;1284085;23;20547;-74
2024/03/01 01:53:06;;;;;;;4.95;4.47;;;;;;;;;;1289182;22;20008;-74
2024/03/01 01:53:37;;;;;;;8.57;4.50;;;;;;;;;;1295147;22;20011;-74
2024/03/01 01:54:09;;;;;;;5.32;4.43;;;;;;;;;;1270325;23;20017;-74
2024/03/01 01:54:40;;;;;;;6.53;5.78;;;;;;;;;;1263843;23;20002;-74
2024/03/01 01:55:10;;;;;;;6.00;4.78;;;;;;;;;;1263724;23;20384;-74
2024/03/01 01:55:41;;;;;;;8.27;7.45;;;;;;;;;;1264082;23;20084;-74
2024/03/01 01:56:13;;;;;;;24.45;9.05;;;;;;;;;;1264975;23;20006;-74
2024/03/01 01:56:44;;;;;;;4.65;4.22;;;;;;;;;;1270777;23;20001;-75
2024/03/01 01:57:14;;;;;;;6.57;4.00;;;;;;;;;;1269510;23;20088;-74
2024/03/01 01:57:46;;;;;;;12.45;4.80;;;;;;;;;;1263853;23;20080;-74
2024/03/01 01:58:17;;;;;;;8.13;7.20;;;;;;;;;;1264372;23;20002;-74
2024/03/01 01:58:49;;;;;;;23.88;9.23;;;;;;;;;;1289778;23;20014;-74
2024/03/01 01:59:20;;;;;;;3.22;3.03;;;;;;;;;;1286017;23;20007;-75
2024/03/01 01:59:51;;;;;;;11.40;7.60;;;;;;;;;;1255891;23;20010;-74
2024/03/01 02:00:24;;;;;;;5.13;4.70;;;;;;;;;;1258626;23;20009;-74
2024/03/01 02:00:55;;;;;;;2.55;2.40;;;;;;;;;;1262607;23;20502;-74
2024/03/01 02:01:26;;;;;;;24.48;8.52;;;;;;;;;;1264035;23;20001;-74
2024/03/01 02:01:57;;;;;;;12.90;10.40;;;;;;;;;;1262577;23;20434;-74
2024/03/01 02:02:29;;;;;;;16.25;8.35;;;;;;;;;;1256993;23;20010;-74
2024/03/01 02:02:59;;;;;;;10.05;8.10;;;;;;;;;;1258169;23;20017;-74
2024/03/01 02:03:30;;;;;;;28.17;4.47;;;;;;;;;;1257436;23;20431;-74
2024/03/01 02:04:01;;;;;;;8.02;7.25;;;;;;;;;;1256847;23;20457;-74
2024/03/01 02:04:31;;;;;;;6.13;4.43;;;;;;;;;;1264578;23;20009;-74
2024/03/01 02:05:03;;;;;;;24.77;6.00;;;;;;;;;;1262424;23;20859;-74
2024/03/01 02:05:34;;;;;;;4.60;4.25;;;;;;;;;;1268639;23;20020;-74
2024/03/01 02:06:05;;;;;;;8.27;5.60;;;;;;;;;;1264729;23;20017;-74
2024/03/01 02:06:35;;;;;;;15.48;8.82;;;;;;;;;;1264527;23;20045;-74
2024/03/01 02:07:06;;;;;;;15.68;6.10;;;;;;;;;;1263546;23;20013;-74
2024/03/01 02:07:36;;;;;;;4.65;4.20;;;;;;;;;;1262246;23;20171;-74
2024/03/01 02:08:07;;;;;;;22.20;8.75;;;;;;;;;;1262430;23;20359;-74
2024/03/01 02:08:38;;;;;;;15.38;7.85;;;;;;;;;;1257383;23;20459;-74
2024/03/01 02:09:17;;;;;;;8.57;3.00;;;;;;;;;;1262759;23;20033;-74
2024/03/01 02:09:50;;;;;;;18.00;10.50;;;;;;;;;;1263613;23;20009;-74
2024/03/01 02:10:22;;;;;;;26.42;9.85;;;;;;;;;;1255982;23;20002;-74
2024/03/01 02:10:53;;;;;;;7.60;6.85;;;;;;;;;;1249100;23;20056;-74
2024/03/01 02:11:25;;;;;;;11.00;5.32;;;;;;;;;;1244232;23;20557;-74
2024/03/01 02:11:56;;;;;;;10.38;9.35;;;;;;;;;;1244092;23;20003;-74
2024/03/01 02:12:27;;;;;;;12.85;7.50;;;;;;;;;;1250195;23;20493;-75
2024/03/01 02:13:01;;;;;;;8.57;5.55;;;;;;;;;;1249832;23;20257;-74
2024/03/01 02:13:32;;;;;;;5.57;5.22;;;;;;;;;;1250368;23;20105;-74
2024/03/01 02:14:02;;;;;;;8.45;7.68;;;;;;;;;;1252479;23;20011;-74
2024/03/01 02:14:33;;;;;;;5.18;4.60;;;;;;;;;;1258810;23;20002;-74
2024/03/01 02:15:08;;;;;;;6.03;5.28;;;;;;;;;;1263389;23;20006;-74
2024/03/01 02:15:39;;;;;;;6.95;6.43;;;;;;;;;;1263587;23;20002;-74
2024/03/01 02:16:10;;;;;;;14.90;9.20;;;;;;;;;;1256086;23;20010;-74
2024/03/01 02:16:40;;;;;;;35.45;11.15;;;;;;;;;;1257146;23;20116;-74
2024/03/01 02:17:11;;;;;;;6.03;5.13;;;;;;;;;;1251307;23;20470;-74
2024/03/01 02:17:41;;;;;;;21.50;9.70;;;;;;;;;;1257656;23;20033;-74
2024/03/01 02:18:15;;;;;;;11.02;9.32;;;;;;;;;;1263839;23;20449;-74
2024/03/01 02:18:50;;;;;;;6.57;5.93;;;;;;;;;;1264750;23;20401;-74
2024/03/01 02:19:24;;;;;;;9.20;4.50;;;;;;;;;;1268815;23;20002;-74
2024/03/01 02:19:58;;;;;;;8.23;4.38;;;;;;;;;;1260437;23;20054;-74
2024/03/01 02:20:30;;;;;;;7.50;5.75;;;;;;;;;;1262449;23;20001;-74
2024/03/01 02:21:11;;;;;;;3.70;3.40;;;;;;;;;;1255024;23;20156;-74
2024/03/01 02:21:41;;;;;;;;;;;;;;;;;;1251271;23;20006;-74
2024/03/01 02:22:17;;;;;;;15.88;14.38;;;;;;;;;;1254189;23;19905;-74
2024/03/01 02:22:52;;;;;;;14.25;5.38;;;;;;;;;;1259296;23;20006;-74
2024/03/01 02:23:22;;;;;;;15.48;5.53;;;;;;;;;;1258718;23;20099;-74
2024/03/01 02:23:54;;;;;;;8.00;4.95;;;;;;;;;;1262487;23;20045;-74
2024/03/01 02:24:24;;;;;;;3.60;2.78;;;;;;;;;;1263247;23;20009;-74
2024/03/01 02:24:55;;;;;;;12.75;7.32;;;;;;;;;;1254153;23;20136;-74
2024/03/01 02:25:26;;;;;;;8.77;6.43;;;;;;;;;;1261368;23;20006;-74
2024/03/01 02:25:56;;;;;;;5.93;5.43;;;;;;;;;;1256541;23;20030;-74
2024/03/01 02:26:27;;;;;;;13.73;7.28;;;;;;;;;;1257241;23;20072;-74
2024/03/01 02:26:57;;;;;;;5.72;3.83;;;;;;;;;;1256685;23;20357;-74
2024/03/01 02:27:28;;;;;;;6.88;5.95;;;;;;;;;;1257117;23;20010;-74
2024/03/01 02:27:58;;;;;;;7.30;4.68;;;;;;;;;;1255968;23;20010;-74
2024/03/01 02:28:29;;;;;;;7.15;4.95;;;;;;;;;;1256037;23;20017;-74
2024/03/01 02:28:59;;;;;;;9.02;3.45;;;;;;;;;;1256285;23;20610;-74
2024/03/01 02:29:30;;;;;;;11.32;5.32;;;;;;;;;;1262980;23;20086;-74
2024/03/01 02:30:00;;;;;;;8.15;3.83;;;;;;;;;;1261720;23;20014;-74
2024/03/01 02:30:31;;;;;;;16.10;8.18;;;;;;;;;;1261832;23;20026;-74
2024/03/01 02:31:01;;;;;;;21.95;6.78;;;;;;;;;;1262379;23;20475;-75
2024/03/01 02:31:32;;;;;;;8.18;7.30;;;;;;;;;;1262475;23;20002;-75
2024/03/01 02:32:02;;;;;;;5.47;4.80;;;;;;;;;;1261879;23;20562;-75
2024/03/01 02:32:33;;;;;;;11.75;10.32;;;;;;;;;;1261431;23;20006;-75
2024/03/01 02:33:04;;;;;;;15.55;11.40;;;;;;;;;;1261708;23;20093;-75
2024/03/01 02:33:34;;;;;;;5.28;4.95;;;;;;;;;;1262635;23;20009;-75
2024/03/01 02:34:05;;;;;;;10.43;5.80;;;;;;;;;;1262454;23;20076;-75
2024/03/01 02:34:36;;;;;;;15.00;8.48;;;;;;;;;;1261454;23;20006;-75
2024/03/01 02:35:06;;;;;;;12.95;7.93;;;;;;;;;;1261930;23;20342;-75
2024/03/01 02:35:37;;;;;;;10.38;9.35;;;;;;;;;;1261789;23;20049;-75
2024/03/01 02:36:08;;;;;;;12.27;9.07;;;;;;;;;;1250431;23;20080;-75
2024/03/01 02:36:38;;;;;;;4.82;4.38;;;;;;;;;;1249502;23;20007;-75
2024/03/01 02:37:09;;;;;;;6.30;4.65;;;;;;;;;;1255489;23;20014;-75
2024/03/01 02:37:42;;;;;;;10.95;5.20;;;;;;;;;;1262763;23;20002;-75
2024/03/01 02:38:13;;;;;;;13.95;5.78;;;;;;;;;;1268824;23;20405;-75
2024/03/01 02:38:44;;;;;;;5.80;5.32;;;;;;;;;;1261967;23;20005;-75
2024/03/01 02:39:18;;;;;;;8.82;5.75;;;;;;;;;;1261747;23;20005;-75
2024/03/01 02:39:48;;;;;;;6.72;4.18;;;;;;;;;;1255845;23;20014;-75
2024/03/01 02:40:19;;;;;;;13.68;12.18;;;;;;;;;;1256388;23;20022;-75
2024/03/01 02:40:49;;;;;;;5.07;4.75;;;;;;;;;;1257085;23;20338;-75
2024/03/01 02:41:20;;;;;;;6.30;5.70;;;;;;;;;;1262257;23;20497;-75
2024/03/01 02:41:51;;;;;;;18.60;9.35;;;;;;;;;;1262253;22;20017;-75
2024/03/01 02:42:21;;;;;;;15.13;7.07;;;;;;;;;;1262816;23;20001;-75
2024/03/01 02:42:52;;;;;;;6.82;6.20;;;;;;;;;;1262871;23;20028;-75
2024/03/01 02:43:22;;;;;;;6.18;5.63;;;;;;;;;;1262007;23;20006;-75
2024/03/01 02:43:53;;;;;;;10.02;7.75;;;;;;;;;;1262603;23;20563;-75
2024/03/01 02:44:24;;;;;;;4.35;3.95;;;;;;;;;;1262294;23;20009;-76
2024/03/01 02:44:54;;;;;;;9.38;6.72;;;;;;;;;;1262795;23;20084;-75
2024/03/01 02:45:25;;;;;;;12.55;6.40;;;;;;;;;;1262475;23;20469;-76
2024/03/01 02:45:56;;;;;;;9.57;8.27;;;;;;;;;;1262437;23;20006;-75
2024/03/01 02:46:27;;;;;;;12.18;8.38;;;;;;;;;;1263029;23;20018;-75
2024/03/01 02:46:57;;;;;;;14.50;5.60;;;;;;;;;;1255832;23;20003;-75
2024/03/01 02:47:28;;;;;;;13.45;12.40;;;;;;;;;;1257126;23;20006;-75
2024/03/01 02:47:58;;;;;;;30.00;9.23;;;;;;;;;;1255011;23;20423;-75
2024/03/01 02:48:29;;;;;;;8.05;7.35;;;;;;;;;;1249138;23;20014;-76
2024/03/01 02:49:01;;;;;;;13.38;9.80;;;;;;;;;;1250037;23;20042;-76
2024/03/01 02:49:32;;;;;;;6.00;3.88;;;;;;;;;;1247798;23;20460;-75
2024/03/01 02:50:02;;;;;;;4.93;4.57;;;;;;;;;;1249810;23;20431;-75
2024/03/01 02:50:33;;;;;;;5.75;3.97;;;;;;;;;;1250500;23;20006;-76
2024/03/01 02:51:04;;;;;;;5.68;5.28;;;;;;;;;;1254958;23;20089;-75
2024/03/01 02:51:34;;;;;;;4.00;3.67;;;;;;;;;;1260863;23;20464;-75
2024/03/01 02:52:05;;;;;;;10.27;9.02;;;;;;;;;;1262008;23;20010;-75
2024/03/01 02:52:36;;;;;;;6.18;5.63;;;;;;;;;;1262097;23;20430;-75
2024/03/01 02:53:07;;;;;;;16.00;6.95;;;;;;;;;;1255708;23;20007;-76
2024/03/01 02:53:37;;;;;;;33.05;8.68;;;;;;;;;;1249957;23;20094;-75
2024/03/01 02:54:08;;;;;;;12.02;3.35;;;;;;;;;;1250672;23;20014;-75
2024/03/01 02:54:38;;;;;;;20.08;7.80;;;;;;;;;;1255955;23;20530;-76
2024/03/01 02:55:09;;;;;;;27.33;8.18;;;;;;;;;;1262462;23;20059;-75
2024/03/01 02:55:41;;;;;;;2.63;2.45;;;;;;;;;;1267951;23;20750;-76
2024/03/01 02:56:12;;;;;;;3.00;2.25;;;;;;;;;;1267807;23;20117;-75
2024/03/01 02:56:44;;;;;;;8.55;6.30;;;;;;;;;;1260821;23;20002;-75
2024/03/01 02:57:15;;;;;;;5.45;4.97;;;;;;;;;;1261541;23;20107;-75
2024/03/01 02:57:50;;;;;;;10.70;5.40;;;;;;;;;;1261595;23;20002;-75
2024/03/01 02:58:20;;;;;;;4.10;3.80;;;;;;;;;;1258141;23;20130;-74
2024/03/01 02:58:51;;;;;;;7.72;7.05;;;;;;;;;;1261372;23;20462;-74
2024/03/01 02:59:22;;;;;;;5.70;2.45;;;;;;;;;;1259676;23;20434;-75
2024/03/01 02:59:52;;;;;;;11.63;6.90;;;;;;;;;;1260242;23;20437;-75
2024/03/01 03:00:24;;;;;;;5.85;5.40;;;;;;;;;;1266712;23;20060;-75
2024/03/01 03:00:57;;;;;;;8.77;5.35;;;;;;;;;;1266095;22;20006;-75
2024/03/01 03:01:31;;;;;;;14.55;3.97;;;;;;;;;;1259546;23;20037;-75
2024/03/01 03:02:04;;;;;;;11.80;7.07;;;;;;;;;;1255164;23;20016;-74
2024/03/01 03:02:35;;;;;;;6.97;6.35;;;;;;;;;;1248089;23;20007;-74
2024/03/01 03:03:06;;;;;;;4.22;3.03;;;;;;;;;;1248999;23;20418;-75
2024/03/01 03:03:40;;;;;;;8.10;6.15;;;;;;;;;;1254764;23;20006;-76